Time;durP1;ratioP1;P1;durP2;ratioP2;P2;SDS_P1;SDS_P2;PMS_P1;PMS_P2;Temp;Humidity;BMP_temperature;BMP_pressure;BME280_temperature;BME280_humidity;BME280_pressure;Samples;Min_cycle;Max_cycle;Signal;HPM_P1;HPM_P2
2021/07/22 00:00:23;;;;;;;0.70;0.70;;;12.10;99.90;;;;;;5019886;28;20301;-68
2021/07/22 00:02:49;;;;;;;0.50;0.50;;;12.10;99.90;;;;;;5021925;28;20349;-68
2021/07/22 00:05:16;;;;;;;0.65;0.65;;;12.10;99.90;;;;;;5018380;28;20195;-68
2021/07/22 00:07:44;;;;;;;1.25;1.15;;;12.00;99.90;;;;;;5015827;28;20672;-68
2021/07/22 00:10:10;;;;;;;7.22;1.42;;;12.00;99.90;;;;;;5016346;28;20238;-70
2021/07/22 00:12:36;;;;;;;0.70;0.70;;;12.00;99.90;;;;;;5033631;28;20527;-68
2021/07/22 00:15:02;;;;;;;0.95;0.88;;;12.00;99.90;;;;;;5021197;28;20240;-67
2021/07/22 00:17:27;;;;;;;0.60;0.60;;;11.90;99.90;;;;;;5021503;28;20518;-67
2021/07/22 00:19:53;;;;;;;0.60;0.60;;;11.90;99.90;;;;;;5016417;28;20190;-67
2021/07/22 00:22:18;;;;;;;0.60;0.60;;;11.90;99.90;;;;;;5020331;28;20333;-68
2021/07/22 00:24:44;;;;;;;0.60;0.60;;;11.90;99.90;;;;;;5022010;28;20213;-68
2021/07/22 00:27:13;;;;;;;0.63;0.63;;;11.80;99.90;;;;;;5018640;28;20209;-69
2021/07/22 00:29:39;;;;;;;1.38;0.95;;;11.90;99.90;;;;;;5018672;28;20213;-69
2021/07/22 00:32:05;;;;;;;0.60;0.60;;;11.80;99.90;;;;;;5017023;28;20195;-68
2021/07/22 00:34:31;;;;;;;0.60;0.60;;;11.80;99.90;;;;;;5020269;28;20253;-69
2021/07/22 00:36:56;;;;;;;0.77;0.77;;;11.80;99.90;;;;;;5013913;28;20187;-68
2021/07/22 00:39:22;;;;;;;0.90;0.90;;;11.80;99.90;;;;;;5019433;28;20736;-68
2021/07/22 00:41:48;;;;;;;0.65;0.63;;;11.80;99.90;;;;;;5017423;28;20680;-67
2021/07/22 00:44:13;;;;;;;0.60;0.60;;;11.80;99.90;;;;;;5018867;28;20206;-68
2021/07/22 00:46:39;;;;;;;0.93;0.70;;;11.80;99.90;;;;;;5016589;28;20198;-68
2021/07/22 00:49:09;;;;;;;1.08;0.98;;;11.80;99.90;;;;;;5022834;28;20202;-70
2021/07/22 00:51:35;;;;;;;0.60;0.60;;;11.80;99.90;;;;;;5014957;28;20194;-68
2021/07/22 00:54:00;;;;;;;0.50;0.50;;;11.70;99.90;;;;;;5018468;28;20197;-68
2021/07/22 00:56:26;;;;;;;1.40;0.90;;;11.70;99.90;;;;;;5022658;28;20244;-67
2021/07/22 00:58:52;;;;;;;0.70;0.70;;;11.70;99.90;;;;;;5014894;28;20266;-68
2021/07/22 01:01:18;;;;;;;1.05;0.73;;;11.70;99.90;;;;;;5020431;28;20214;-74
2021/07/22 01:03:44;;;;;;;0.50;0.50;;;11.70;99.90;;;;;;5022409;28;20542;-74
2021/07/22 01:06:10;;;;;;;0.70;0.70;;;11.70;99.90;;;;;;5021229;28;20769;-73
2021/07/22 01:08:36;;;;;;;0.50;0.50;;;11.70;99.90;;;;;;5023668;28;20246;-75
2021/07/22 01:11:02;;;;;;;1.05;0.98;;;11.70;99.90;;;;;;5027389;28;20276;-75
2021/07/22 01:13:27;;;;;;;0.60;0.60;;;11.50;99.90;;;;;;5024053;28;20194;-73
2021/07/22 01:15:53;;;;;;;0.52;0.52;;;11.50;99.90;;;;;;5028058;28;20200;-74
2021/07/22 01:18:22;;;;;;;0.60;0.60;;;11.40;99.90;;;;;;5027242;28;20206;-73
2021/07/22 01:20:48;;;;;;;0.60;0.60;;;11.40;99.90;;;;;;5026712;28;20205;-74
2021/07/22 01:23:13;;;;;;;0.60;0.60;;;11.40;99.90;;;;;;5026280;28;20194;-74
2021/07/22 01:25:39;;;;;;;0.60;0.60;;;11.30;99.90;;;;;;5023162;28;20194;-73
2021/07/22 01:28:04;;;;;;;0.60;0.60;;;11.30;99.90;;;;;;5022612;28;20258;-73
2021/07/22 01:30:30;;;;;;;0.60;0.60;;;11.30;99.90;;;;;;5025525;28;20210;-74
2021/07/22 01:32:56;;;;;;;0.57;0.57;;;11.20;99.90;;;;;;5018765;28;20221;-70
2021/07/22 01:35:21;;;;;;;0.93;0.85;;;11.30;99.90;;;;;;5017587;28;20224;-74
2021/07/22 01:37:50;;;;;;;0.80;0.80;;;11.20;99.90;;;;;;5019317;28;20673;-71
2021/07/22 01:40:16;;;;;;;0.60;0.60;;;11.20;99.90;;;;;;5019469;28;20289;-72
2021/07/22 01:42:42;;;;;;;0.57;0.57;;;11.20;99.90;;;;;;5020461;28;20186;-75
2021/07/22 01:45:08;;;;;;;0.77;0.77;;;11.20;99.90;;;;;;5018652;28;20213;-74
2021/07/22 01:47:38;;;;;;;0.63;0.63;;;11.20;99.90;;;;;;5019290;28;20691;-73
2021/07/22 01:50:04;;;;;;;0.70;0.70;;;11.10;99.90;;;;;;5019024;28;20214;-73
2021/07/22 01:52:30;;;;;;;1.05;1.05;;;11.10;99.90;;;;;;5022433;28;20640;-73
2021/07/22 01:54:56;;;;;;;0.60;0.60;;;11.00;99.90;;;;;;5023081;28;20186;-74
2021/07/22 01:57:21;;;;;;;0.50;0.50;;;11.00;99.90;;;;;;5019117;28;20234;-74
2021/07/22 01:59:48;;;;;;;0.55;0.55;;;11.00;99.90;;;;;;5018924;28;20202;-72
2021/07/22 02:02:14;;;;;;;0.60;0.60;;;11.00;99.90;;;;;;5018155;28;20230;-73
2021/07/22 02:04:40;;;;;;;0.50;0.50;;;11.00;99.90;;;;;;5018885;28;20633;-73
2021/07/22 02:07:06;;;;;;;1.13;0.77;;;11.00;99.90;;;;;;5018686;28;20224;-71
2021/07/22 02:09:32;;;;;;;0.60;0.60;;;11.00;99.90;;;;;;5018638;28;20212;-71
2021/07/22 02:11:59;;;;;;;0.60;0.60;;;10.90;99.90;;;;;;5021075;28;20206;-74
2021/07/22 02:14:26;;;;;;;0.60;0.60;;;10.90;99.90;;;;;;5019932;28;20259;-72
2021/07/22 02:16:52;;;;;;;0.68;0.68;;;10.90;99.90;;;;;;5023972;28;20221;-71
2021/07/22 02:19:18;;;;;;;0.85;0.85;;;10.90;99.90;;;;;;5019812;28;20193;-72
2021/07/22 02:21:45;;;;;;;0.88;0.88;;;10.90;99.90;;;;;;5023546;28;20248;-74
2021/07/22 02:24:12;;;;;;;1.20;1.10;;;10.90;99.90;;;;;;5020767;28;20233;-71
2021/07/22 02:26:38;;;;;;;0.75;0.75;;;10.80;99.90;;;;;;5022045;28;20205;-73
2021/07/22 02:29:06;;;;;;;0.90;0.90;;;10.80;99.90;;;;;;5019236;28;20225;-74
2021/07/22 02:31:32;;;;;;;0.70;0.70;;;10.80;99.90;;;;;;5019797;28;20285;-74
2021/07/22 02:33:58;;;;;;;0.93;0.93;;;10.80;99.90;;;;;;5035298;28;20197;-71
2021/07/22 02:36:23;;;;;;;0.65;0.65;;;10.80;99.90;;;;;;5020470;28;20194;-72
2021/07/22 02:38:49;;;;;;;0.65;0.65;;;10.80;99.90;;;;;;5033532;28;21408;-75
2021/07/22 02:41:15;;;;;;;0.60;0.60;;;10.80;99.90;;;;;;5031393;28;20201;-74
2021/07/22 02:43:41;;;;;;;0.60;0.60;;;10.80;99.90;;;;;;5022634;28;20221;-72
2021/07/22 02:46:08;;;;;;;0.60;0.60;;;10.80;99.90;;;;;;5020029;28;20202;-71
2021/07/22 02:48:35;;;;;;;0.60;0.60;;;10.80;99.90;;;;;;5021413;28;20749;-73
2021/07/22 02:51:05;;;;;;;0.60;0.60;;;10.90;99.90;;;;;;5017093;28;20321;-73
2021/07/22 02:53:31;;;;;;;0.60;0.60;;;10.90;99.90;;;;;;5018563;28;20198;-72
2021/07/22 02:55:58;;;;;;;5.20;1.30;;;10.90;99.90;;;;;;5019868;28;20621;-73
2021/07/22 02:58:23;;;;;;;0.70;0.70;;;10.90;99.90;;;;;;5019115;28;20253;-72
2021/07/22 03:00:49;;;;;;;0.60;0.60;;;11.00;99.90;;;;;;5019544;28;20566;-73
2021/07/22 03:03:15;;;;;;;0.60;0.60;;;11.00;99.90;;;;;;5020308;28;20206;-73
2021/07/22 03:05:40;;;;;;;0.70;0.70;;;11.10;99.90;;;;;;5012810;28;20207;-73
2021/07/22 03:08:06;;;;;;;0.70;0.70;;;11.10;99.90;;;;;;5020009;28;20534;-74
2021/07/22 03:10:32;;;;;;;0.65;0.65;;;11.20;99.90;;;;;;5021364;28;20317;-71
2021/07/22 03:12:58;;;;;;;0.60;0.60;;;11.20;99.90;;;;;;5016221;28;20237;-73
2021/07/22 03:15:23;;;;;;;0.75;0.75;;;11.20;99.90;;;;;;5016342;28;20226;-71
2021/07/22 03:17:49;;;;;;;0.60;0.60;;;11.20;99.90;;;;;;5020637;28;20228;-74
2021/07/22 03:20:15;;;;;;;2.05;0.80;;;11.30;99.90;;;;;;5015899;28;20198;-73
2021/07/22 03:22:41;;;;;;;0.90;0.90;;;11.40;99.90;;;;;;5015872;28;20202;-74
2021/07/22 03:25:08;;;;;;;3.00;1.15;;;11.50;99.90;;;;;;5016992;28;20678;-72
2021/07/22 03:27:33;;;;;;;2.05;1.17;;;11.60;99.90;;;;;;5016838;28;20210;-71
2021/07/22 03:29:59;;;;;;;0.60;0.60;;;11.60;99.90;;;;;;5014983;28;20288;-71
2021/07/22 03:32:24;;;;;;;0.60;0.60;;;11.70;99.90;;;;;;5018554;28;20194;-73
2021/07/22 03:34:50;;;;;;;0.50;0.50;;;11.80;99.90;;;;;;5012727;28;20194;-73
2021/07/22 03:37:16;;;;;;;0.70;0.70;;;11.80;99.90;;;;;;5016357;28;20248;-74
2021/07/22 03:39:42;;;;;;;0.93;0.93;;;11.90;99.90;;;;;;5016480;28;20198;-72
2021/07/22 03:42:07;;;;;;;0.50;0.50;;;11.90;99.90;;;;;;5016284;28;20919;-73
2021/07/22 03:44:33;;;;;;;0.60;0.60;;;12.00;99.90;;;;;;5016277;28;20737;-72
2021/07/22 03:46:59;;;;;;;0.50;0.50;;;12.10;99.90;;;;;;5016422;28;20629;-72
2021/07/22 03:49:25;;;;;;;0.70;0.70;;;12.10;99.90;;;;;;5031997;28;20206;-72
2021/07/22 03:51:57;;;;;;;0.60;0.60;;;12.20;99.90;;;;;;5014698;28;20214;-73
2021/07/22 03:54:24;;;;;;;0.65;0.65;;;12.30;99.90;;;;;;5013128;28;20198;-72
2021/07/22 03:56:50;;;;;;;0.75;0.75;;;12.40;99.90;;;;;;5011432;28;20222;-72
2021/07/22 03:59:16;;;;;;;0.60;0.60;;;12.40;99.90;;;;;;5016445;28;20203;-71
2021/07/22 04:01:42;;;;;;;0.60;0.60;;;12.50;99.90;;;;;;5015754;28;20233;-71
2021/07/22 04:04:08;;;;;;;0.50;0.50;;;12.60;99.90;;;;;;5016505;28;20201;-71
2021/07/22 04:06:35;;;;;;;0.50;0.50;;;12.70;99.90;;;;;;5012569;28;20832;-71
2021/07/22 04:09:01;;;;;;;0.50;0.50;;;12.80;99.90;;;;;;5015678;28;20195;-72
2021/07/22 04:11:26;;;;;;;2.53;1.25;;;12.90;99.90;;;;;;5014500;28;20665;-71
2021/07/22 04:13:52;;;;;;;0.50;0.50;;;12.90;99.90;;;;;;5013406;28;20199;-72
2021/07/22 04:16:18;;;;;;;0.90;0.90;;;13.00;99.90;;;;;;5010699;28;20688;-71
2021/07/22 04:18:43;;;;;;;0.50;0.50;;;13.10;99.90;;;;;;5014673;28;20194;-71
2021/07/22 04:21:09;;;;;;;0.50;0.50;;;13.20;99.90;;;;;;5015769;28;20271;-72
2021/07/22 04:23:35;;;;;;;1.05;1.05;;;13.30;99.90;;;;;;5013436;28;20712;-72
2021/07/22 04:26:01;;;;;;;2.55;0.95;;;13.40;99.90;;;;;;5012442;28;20199;-73
2021/07/22 04:28:26;;;;;;;0.82;0.82;;;13.50;99.90;;;;;;5010259;28;20195;-72
2021/07/22 04:30:52;;;;;;;0.50;0.50;;;13.70;99.90;;;;;;5024239;28;20217;-73
2021/07/22 04:33:19;;;;;;;0.50;0.50;;;13.80;99.90;;;;;;5013219;28;20195;-74
2021/07/22 04:35:45;;;;;;;0.60;0.60;;;14.00;99.90;;;;;;5011514;28;20205;-72
2021/07/22 04:38:10;;;;;;;0.60;0.60;;;14.20;99.90;;;;;;5019427;28;20194;-72
2021/07/22 04:40:36;;;;;;;0.98;0.98;;;14.30;99.90;;;;;;5016926;28;20206;-72
2021/07/22 04:43:02;;;;;;;0.60;0.60;;;14.50;99.90;;;;;;5022065;28;20577;-71
2021/07/22 04:45:28;;;;;;;0.50;0.50;;;14.70;99.90;;;;;;5014473;28;20207;-72
2021/07/22 04:47:54;;;;;;;0.70;0.70;;;14.80;99.90;;;;;;5018714;28;20225;-72
2021/07/22 04:50:19;;;;;;;3.38;0.98;;;14.90;99.90;;;;;;5019385;28;20248;-72
2021/07/22 04:52:45;;;;;;;0.80;0.80;;;15.00;99.90;;;;;;5015399;28;20205;-72
2021/07/22 04:55:11;;;;;;;0.77;0.77;;;15.20;99.90;;;;;;5022909;28;20581;-72
2021/07/22 04:57:36;;;;;;;0.50;0.50;;;15.40;99.90;;;;;;5023538;28;20201;-72
2021/07/22 05:00:05;;;;;;;1.30;1.00;;;15.50;99.90;;;;;;5020976;28;20202;-69
2021/07/22 05:02:31;;;;;;;0.80;0.80;;;15.70;99.90;;;;;;5023787;28;20229;-72
2021/07/22 05:04:56;;;;;;;0.52;0.52;;;15.80;99.90;;;;;;5020957;28;20198;-72
2021/07/22 05:07:22;;;;;;;0.52;0.52;;;15.90;99.90;;;;;;5020201;28;20598;-72
2021/07/22 05:09:48;;;;;;;1.45;1.20;;;16.00;99.90;;;;;;5015004;28;20213;-70
2021/07/22 05:12:13;;;;;;;0.63;0.60;;;16.10;99.90;;;;;;5018985;28;20190;-72
2021/07/22 05:14:39;;;;;;;8.77;1.50;;;16.20;99.90;;;;;;5022781;28;20273;-76
2021/07/22 05:17:05;;;;;;;0.35;0.35;;;16.20;99.90;;;;;;5013296;28;20191;-72
2021/07/22 05:19:31;;;;;;;1.55;1.40;;;16.30;99.90;;;;;;5017036;28;20267;-72
2021/07/22 05:21:57;;;;;;;0.73;0.73;;;16.40;99.90;;;;;;5019086;28;20269;-72
2021/07/22 05:24:22;;;;;;;1.13;1.02;;;16.40;99.90;;;;;;5018561;28;20277;-73
2021/07/22 05:26:49;;;;;;;0.77;0.77;;;16.40;99.90;;;;;;5021704;28;20232;-73
2021/07/22 05:29:15;;;;;;;1.90;0.70;;;16.40;99.90;;;;;;5015784;28;20202;-73
2021/07/22 05:31:42;;;;;;;0.43;0.43;;;16.50;99.90;;;;;;5018644;28;20244;-73
2021/07/22 05:34:08;;;;;;;0.40;0.40;;;16.40;99.90;;;;;;5024551;28;20509;-73
2021/07/22 05:36:34;;;;;;;0.60;0.60;;;16.50;99.90;;;;;;5024862;28;20191;-75
2021/07/22 05:39:00;;;;;;;0.85;0.85;;;16.40;99.90;;;;;;5023088;28;20203;-75
2021/07/22 05:41:26;;;;;;;0.95;0.95;;;16.50;99.90;;;;;;5018567;28;20837;-74
2021/07/22 05:43:52;;;;;;;0.57;0.57;;;16.50;99.90;;;;;;5016984;28;20239;-74
2021/07/22 05:46:19;;;;;;;1.35;1.15;;;16.50;99.90;;;;;;5014535;28;20708;-74
2021/07/22 05:48:46;;;;;;;0.98;0.90;;;16.50;99.90;;;;;;5023120;28;20194;-74
2021/07/22 05:51:12;;;;;;;0.80;0.80;;;16.60;99.90;;;;;;5015963;28;20198;-74
2021/07/22 05:53:38;;;;;;;0.70;0.70;;;16.60;99.90;;;;;;5024228;28;20644;-74
2021/07/22 05:56:03;;;;;;;0.68;0.68;;;16.60;99.90;;;;;;5018209;28;20197;-74
2021/07/22 05:58:30;;;;;;;1.25;1.15;;;16.70;99.90;;;;;;5017652;28;20708;-73
2021/07/22 06:00:56;;;;;;;2.08;1.35;;;16.70;99.90;;;;;;5019847;28;20209;-74
2021/07/22 06:03:22;;;;;;;1.13;1.02;;;16.70;99.90;;;;;;5020710;28;20875;-74
2021/07/22 06:05:47;;;;;;;0.50;0.50;;;16.80;99.90;;;;;;5020402;28;20282;-74
2021/07/22 06:08:13;;;;;;;2.13;1.45;;;16.90;99.90;;;;;;5024170;28;20197;-70
2021/07/22 06:10:39;;;;;;;0.50;0.50;;;16.90;99.90;;;;;;5018237;28;20214;-73
2021/07/22 06:13:05;;;;;;;0.60;0.60;;;17.00;99.90;;;;;;5014252;28;20688;-74
2021/07/22 06:15:31;;;;;;;0.50;0.50;;;17.10;99.90;;;;;;5021325;28;20288;-73
2021/07/22 06:17:56;;;;;;;0.40;0.40;;;17.10;99.90;;;;;;5020181;28;20198;-74
2021/07/22 06:20:22;;;;;;;0.60;0.60;;;17.20;99.90;;;;;;5017780;28;20200;-74
2021/07/22 06:22:48;;;;;;;0.50;0.50;;;17.30;99.90;;;;;;5020680;28;20217;-73
2021/07/22 06:25:14;;;;;;;0.80;0.80;;;17.40;99.90;;;;;;5022120;28;20337;-73
2021/07/22 06:27:43;;;;;;;0.60;0.60;;;17.50;99.90;;;;;;5022987;28;20198;-74
2021/07/22 06:30:11;;;;;;;0.70;0.70;;;17.50;99.90;;;;;;5020626;28;20221;-74
2021/07/22 06:32:37;;;;;;;3.80;0.80;;;17.50;99.90;;;;;;5017515;28;20205;-72
2021/07/22 06:35:03;;;;;;;0.55;0.55;;;17.50;99.90;;;;;;5022007;28;20398;-74
2021/07/22 06:37:41;;;;;;;0.90;0.90;;;17.50;99.90;;;;;;5021003;28;20717;-74
2021/07/22 06:40:07;;;;;;;0.77;0.77;;;17.60;99.90;;;;;;5020946;28;20272;-73
2021/07/22 06:42:33;;;;;;;0.60;0.60;;;17.60;99.90;;;;;;5021565;28;20230;-74
2021/07/22 06:44:59;;;;;;;0.50;0.50;;;17.60;99.90;;;;;;5020023;28;20397;-73
2021/07/22 06:47:24;;;;;;;0.73;0.73;;;17.70;99.90;;;;;;5021110;28;20649;-74
2021/07/22 06:49:51;;;;;;;0.50;0.50;;;17.70;99.90;;;;;;5021446;28;20221;-74
2021/07/22 06:52:16;;;;;;;0.85;0.77;;;17.80;99.90;;;;;;5022446;28;20182;-74
2021/07/22 06:54:42;;;;;;;0.98;0.82;;;17.90;99.90;;;;;;5022850;28;21008;-74
2021/07/22 06:57:08;;;;;;;0.40;0.40;;;18.00;99.90;;;;;;5022495;28;20241;-73
2021/07/22 06:59:33;;;;;;;0.57;0.57;;;18.00;99.90;;;;;;5022185;28;20684;-74
2021/07/22 07:01:59;;;;;;;2.67;0.82;;;18.10;99.90;;;;;;5029623;28;20305;-74
2021/07/22 07:04:25;;;;;;;0.52;0.52;;;18.10;99.90;;;;;;5023319;28;20277;-75
2021/07/22 07:06:51;;;;;;;1.13;0.63;;;18.20;99.90;;;;;;5024862;28;20205;-73
2021/07/22 07:09:16;;;;;;;0.40;0.40;;;18.20;99.90;;;;;;5021284;28;20229;-74
2021/07/22 07:11:42;;;;;;;2.08;0.82;;;18.30;99.90;;;;;;5027064;28;20199;-74
2021/07/22 07:14:07;;;;;;;0.50;0.50;;;18.40;99.90;;;;;;5024225;28;20186;-74
2021/07/22 07:16:33;;;;;;;0.73;0.73;;;18.50;99.90;;;;;;5018350;28;20213;-74
2021/07/22 07:18:59;;;;;;;3.08;1.05;;;18.60;99.90;;;;;;5017750;28;20270;-73
2021/07/22 07:21:24;;;;;;;2.85;1.60;;;18.60;99.90;;;;;;5027791;28;20198;-74
2021/07/22 07:23:50;;;;;;;0.50;0.50;;;18.70;99.90;;;;;;5018447;28;20239;-74
2021/07/22 07:26:16;;;;;;;0.80;0.75;;;18.80;99.90;;;;;;5026727;28;20186;-74
2021/07/22 07:28:42;;;;;;;4.60;1.55;;;18.80;99.90;;;;;;5019658;28;20207;-74
2021/07/22 07:31:07;;;;;;;1.33;1.23;;;18.90;99.90;;;;;;5028444;28;20285;-74
2021/07/22 07:33:33;;;;;;;0.50;0.40;;;18.90;99.90;;;;;;5023801;28;20205;-74
2021/07/22 07:35:59;;;;;;;0.63;0.63;;;18.90;99.90;;;;;;5020485;28;20191;-74
2021/07/22 07:38:24;;;;;;;1.00;0.77;;;18.90;99.90;;;;;;5022869;28;20539;-74
2021/07/22 07:40:50;;;;;;;0.57;0.57;;;18.90;99.90;;;;;;5019649;28;20297;-74
2021/07/22 07:43:20;;;;;;;2.40;1.20;;;19.00;99.90;;;;;;5025160;28;20202;-75
2021/07/22 07:45:47;;;;;;;1.00;0.75;;;19.10;99.90;;;;;;5022314;28;20206;-74
2021/07/22 07:48:12;;;;;;;1.08;0.85;;;19.20;99.90;;;;;;5018040;28;20281;-74
2021/07/22 07:50:38;;;;;;;0.50;0.50;;;19.40;99.90;;;;;;5016616;28;20301;-74
2021/07/22 07:53:18;;;;;;;2.22;0.55;;;19.50;99.90;;;;;;5022083;28;20194;-74
2021/07/22 07:55:44;;;;;;;1.75;1.20;;;19.70;99.90;;;;;;5015480;28;20199;-74
2021/07/22 07:58:10;;;;;;;0.93;0.68;;;19.80;99.90;;;;;;5021923;28;20208;-74
2021/07/22 08:00:37;;;;;;;0.20;0.20;;;20.00;99.90;;;;;;5021576;28;20232;-74
2021/07/22 08:03:03;;;;;;;1.30;0.88;;;20.10;99.90;;;;;;5016383;28;20198;-74
2021/07/22 08:05:29;;;;;;;1.45;0.45;;;20.30;99.90;;;;;;5017646;28;20209;-73
2021/07/22 08:07:55;;;;;;;2.30;1.05;;;20.20;99.90;;;;;;5015476;28;20227;-73
2021/07/22 08:10:21;;;;;;;2.30;1.38;;;20.40;99.90;;;;;;5019648;28;20202;-74
2021/07/22 08:12:47;;;;;;;2.05;1.25;;;20.60;99.90;;;;;;5020815;28;20198;-73
2021/07/22 08:15:14;;;;;;;0.30;0.30;;;20.70;99.90;;;;;;5020102;28;20187;-75
2021/07/22 08:17:41;;;;;;;0.65;0.65;;;21.30;99.90;;;;;;5023833;28;20191;-74
2021/07/22 08:20:08;;;;;;;2.50;0.50;;;21.70;99.90;;;;;;5015995;28;20237;-74
2021/07/22 08:22:35;;;;;;;1.17;0.90;;;22.20;99.90;;;;;;5019265;28;20195;-75
2021/07/22 08:25:01;;;;;;;1.63;0.95;;;22.40;99.90;;;;;;5024063;28;20194;-74
2021/07/22 08:27:28;;;;;;;0.45;0.45;;;22.20;99.90;;;;;;5017197;28;20202;-74
2021/07/22 08:29:54;;;;;;;0.80;0.80;;;22.00;99.90;;;;;;5017002;28;20301;-74
2021/07/22 08:32:20;;;;;;;1.10;1.00;;;22.10;99.90;;;;;;5024791;28;20264;-74
2021/07/22 08:34:46;;;;;;;1.35;0.90;;;22.10;99.90;;;;;;5019787;28;20688;-74
2021/07/22 08:37:12;;;;;;;0.45;0.38;;;22.30;99.90;;;;;;5023426;28;20283;-75
2021/07/22 08:39:44;;;;;;;0.45;0.40;;;22.70;99.90;;;;;;5017701;28;20531;-75
2021/07/22 08:42:12;;;;;;;0.40;0.40;;;22.70;99.90;;;;;;5027798;28;20198;-74
2021/07/22 08:44:42;;;;;;;0.43;0.43;;;22.50;99.90;;;;;;5022876;28;20286;-74
2021/07/22 08:47:10;;;;;;;0.80;0.55;;;22.70;99.90;;;;;;5019897;28;20586;-74
2021/07/22 08:49:37;;;;;;;2.15;0.60;;;23.30;99.90;;;;;;5014556;28;20238;-74
2021/07/22 08:52:11;;;;;;;1.13;0.50;;;23.30;99.90;;;;;;5017256;28;20217;-74
2021/07/22 08:54:38;;;;;;;0.80;0.52;;;23.30;99.90;;;;;;5010488;28;20286;-74
2021/07/22 08:57:09;;;;;;;0.70;0.70;;;23.10;99.90;;;;;;5018390;28;20202;-74
2021/07/22 08:59:35;;;;;;;1.00;0.80;;;23.30;99.90;;;;;;5019420;28;20695;-75
2021/07/22 09:02:01;;;;;;;0.45;0.45;;;23.70;99.90;;;;;;5013446;28;20261;-74
2021/07/22 09:04:28;;;;;;;0.25;0.25;;;24.20;99.90;;;;;;5005893;28;20749;-74
2021/07/22 09:06:55;;;;;;;0.47;0.47;;;24.20;99.90;;;;;;5001912;28;20253;-74
2021/07/22 09:09:21;;;;;;;0.75;0.57;;;24.00;99.90;;;;;;4988771;28;20968;-74
2021/07/22 09:12:01;;;;;;;0.40;0.40;;;24.20;99.90;;;;;;4997718;28;20221;-72
2021/07/22 09:14:29;;;;;;;0.22;0.22;;;24.60;99.90;;;;;;5000592;28;20197;-73
2021/07/22 09:16:56;;;;;;;1.17;1.08;;;24.70;99.90;;;;;;4980441;28;20211;-73
2021/07/22 09:19:30;;;;;;;0.68;0.65;;;25.10;99.90;;;;;;4998904;28;20714;-73
2021/07/22 09:21:56;;;;;;;0.25;0.25;;;25.40;99.90;;;;;;5005915;28;20317;-74
2021/07/22 09:24:22;;;;;;;6.30;1.75;;;25.80;99.90;;;;;;5002274;28;20230;-74
2021/07/22 09:26:50;;;;;;;0.68;0.65;;;26.10;99.90;;;;;;5004448;28;20257;-73
2021/07/22 09:29:17;;;;;;;0.60;0.60;;;26.30;99.90;;;;;;5002716;28;20206;-73
2021/07/22 09:31:44;;;;;;;0.10;0.10;;;26.10;99.90;;;;;;5004594;28;20191;-73
2021/07/22 09:34:23;;;;;;;2.47;0.73;;;26.00;99.90;;;;;;4983083;28;20553;-73
2021/07/22 09:36:49;;;;;;;0.35;0.35;;;26.20;99.90;;;;;;5003671;28;20203;-73
2021/07/22 09:39:26;;;;;;;0.30;0.30;;;26.50;99.90;;;;;;4986180;28;20199;-73
2021/07/22 09:41:58;;;;;;;0.20;0.20;;;26.70;99.90;;;;;;5001972;28;20723;-73
2021/07/22 09:44:28;;;;;;;0.68;0.68;;;26.80;99.90;;;;;;5003411;28;20186;-74
2021/07/22 09:46:54;;;;;;;0.15;0.15;;;26.50;99.90;;;;;;4997254;28;20541;-74
2021/07/22 09:49:20;;;;;;;0.45;0.30;;;26.20;99.90;;;;;;4984497;28;20198;-73
2021/07/22 09:51:46;;;;;;;0.30;0.30;;;26.20;99.90;;;;;;4999428;28;20919;-73
2021/07/22 09:54:15;;;;;;;0.38;0.38;;;26.30;99.90;;;;;;5003326;28;20203;-74
2021/07/22 09:56:41;;;;;;;0.20;0.20;;;26.70;99.90;;;;;;4992548;28;20769;-75
2021/07/22 09:59:08;;;;;;;0.17;0.17;;;26.80;99.90;;;;;;5008708;28;20228;-71
2021/07/22 10:01:44;;;;;;;0.40;0.40;;;26.80;99.90;;;;;;5011868;28;20221;-72
2021/07/22 10:04:11;;;;;;;1.80;0.50;;;26.80;99.90;;;;;;5020945;28;20190;-74
2021/07/22 10:06:39;;;;;;;1.60;0.90;;;26.70;99.90;;;;;;5021666;28;20202;-74
2021/07/22 10:09:06;;;;;;;0.43;0.43;;;27.00;99.90;;;;;;5023258;28;20279;-75
2021/07/22 10:11:33;;;;;;;0.40;0.40;;;27.10;99.90;;;;;;5014117;28;20301;-75
2021/07/22 10:14:00;;;;;;;1.05;0.65;;;27.40;99.90;;;;;;5021160;28;20297;-74
2021/07/22 10:16:28;;;;;;;2.75;1.02;;;27.50;99.90;;;;;;5026047;28;20644;-75
2021/07/22 10:18:58;;;;;;;0.40;0.40;;;27.60;99.90;;;;;;5024373;28;20504;-74
2021/07/22 10:21:25;;;;;;;0.57;0.40;;;27.80;99.90;;;;;;5033730;28;20195;-74
2021/07/22 10:23:52;;;;;;;0.32;0.32;;;27.60;99.90;;;;;;5024972;28;20190;-73
2021/07/22 10:26:22;;;;;;;2.33;1.08;;;27.80;99.90;;;;;;5019536;28;20221;-74
2021/07/22 10:28:49;;;;;;;0.60;0.30;;;28.20;99.90;;;;;;5022790;28;20217;-74
2021/07/22 10:31:16;;;;;;;0.40;0.40;;;28.40;99.90;;;;;;5019520;28;20547;-74
2021/07/22 10:33:45;;;;;;;0.52;0.30;;;28.50;99.90;;;;;;5025701;28;20201;-74
2021/07/22 10:36:11;;;;;;;0.13;0.13;;;28.80;99.90;;;;;;5020706;28;20225;-75
2021/07/22 10:38:44;;;;;;;0.10;0.10;;;29.20;99.30;;;;;;5022877;28;20288;-75
2021/07/22 10:41:30;;;;;;;0.25;0.25;;;29.00;98.40;;;;;;5025372;28;20647;-73
2021/07/22 10:43:55;;;;;;;0.63;0.50;;;28.60;99.60;;;;;;5026714;28;20198;-71
2021/07/22 10:46:21;;;;;;;8.98;1.85;;;28.60;99.80;;;;;;5019024;28;20210;-72
2021/07/22 10:48:47;;;;;;;0.98;0.45;;;28.90;99.90;;;;;;5022733;28;20194;-71
2021/07/22 10:51:19;;;;;;;0.47;0.40;;;28.60;99.30;;;;;;5022762;28;20213;-74
2021/07/22 10:53:44;;;;;;;0.30;0.30;;;28.90;97.90;;;;;;5022977;28;20564;-74
2021/07/22 10:56:12;;;;;;;0.30;0.30;;;29.00;96.80;;;;;;5018859;28;20337;-73
2021/07/22 10:58:38;;;;;;;0.25;0.25;;;28.80;97.60;;;;;;5019939;28;20259;-74
2021/07/22 11:01:05;;;;;;;0.20;0.20;;;28.40;95.70;;;;;;5023728;28;20214;-74
2021/07/22 11:03:34;;;;;;;0.52;0.43;;;28.50;95.20;;;;;;4982238;28;20310;-74
2021/07/22 11:06:11;;;;;;;0.30;0.30;;;28.90;96.90;;;;;;5002522;28;20195;-75
2021/07/22 11:08:38;;;;;;;0.55;0.28;;;29.30;96.80;;;;;;5004939;28;20204;-74
2021/07/22 11:11:06;;;;;;;0.75;0.60;;;29.60;96.50;;;;;;5004175;28;20210;-74
2021/07/22 11:13:41;;;;;;;0.28;0.28;;;29.60;94.70;;;;;;4985966;28;20202;-74
2021/07/22 11:16:18;;;;;;;0.50;0.50;;;29.40;94.50;;;;;;5006938;28;20271;-73
2021/07/22 11:18:44;;;;;;;0.40;0.40;;;29.20;94.30;;;;;;5007302;28;20298;-74
2021/07/22 11:21:18;;;;;;;0.32;0.32;;;29.40;93.50;;;;;;5001216;28;20689;-73
2021/07/22 11:24:06;;;;;;;0.20;0.10;;;29.40;93.20;;;;;;5004451;28;20297;-73
2021/07/22 11:26:33;;;;;;;0.22;0.22;;;29.60;93.10;;;;;;5008108;28;20237;-73
2021/07/22 11:29:01;;;;;;;0.43;0.43;;;29.30;93.00;;;;;;4985985;28;20209;-73
2021/07/22 11:31:31;;;;;;;0.65;0.65;;;29.20;94.00;;;;;;4982054;28;20210;-74
2021/07/22 11:34:03;;;;;;;0.60;0.60;;;29.10;93.60;;;;;;4990928;28;20281;-75
2021/07/22 11:36:31;;;;;;;0.20;0.20;;;29.00;94.00;;;;;;5007067;28;20280;-74
2021/07/22 11:38:57;;;;;;;6.22;0.77;;;29.50;95.40;;;;;;4993999;28;20202;-75
2021/07/22 11:41:23;;;;;;;0.40;0.40;;;29.90;95.20;;;;;;4982189;28;20614;-75
2021/07/22 11:43:54;;;;;;;0.20;0.20;;;30.30;94.10;;;;;;4990918;28;20207;-72
2021/07/22 11:46:38;;;;;;;0.30;0.30;;;30.10;91.50;;;;;;5002263;28;20730;-73
2021/07/22 11:49:17;;;;;;;0.70;0.20;;;30.10;93.10;;;;;;4982366;28;20218;-73
2021/07/22 11:51:48;;;;;;;1.55;0.70;;;30.20;92.40;;;;;;5003867;28;20198;-73
2021/07/22 11:54:17;;;;;;;0.70;0.40;;;30.30;92.70;;;;;;5008154;28;20198;-73
2021/07/22 11:56:45;;;;;;;0.10;0.10;;;30.60;93.30;;;;;;5006820;28;20327;-73
2021/07/22 11:59:12;;;;;;;0.22;0.20;;;30.90;90.70;;;;;;4999836;28;20261;-73
2021/07/22 12:01:51;;;;;;;0.50;0.40;;;30.90;91.70;;;;;;5009652;28;20758;-73
2021/07/22 12:04:30;;;;;;;0.15;0.10;;;30.80;90.60;;;;;;5017263;28;20748;-73
2021/07/22 12:06:58;;;;;;;0.45;0.28;;;30.30;89.60;;;;;;5016290;28;20277;-73
2021/07/22 12:09:24;;;;;;;1.23;0.40;;;30.00;90.90;;;;;;5014217;28;20205;-74
2021/07/22 12:11:58;;;;;;;0.80;0.65;;;30.10;92.80;;;;;;5023535;28;20264;-73
2021/07/22 12:14:45;;;;;;;0.50;0.50;;;30.40;91.90;;;;;;5020165;28;20197;-73
2021/07/22 12:17:11;;;;;;;0.52;0.30;;;30.40;90.00;;;;;;5040701;28;20261;-72
2021/07/22 12:19:39;;;;;;;0.35;0.35;;;30.00;90.10;;;;;;5019861;28;20316;-72
2021/07/22 12:22:24;;;;;;;0.30;0.30;;;29.80;90.50;;;;;;5020901;28;20205;-74
2021/07/22 12:25:15;;;;;;;0.35;0.35;;;29.90;91.10;;;;;;5020744;28;20280;-72
2021/07/22 12:27:58;;;;;;;0.70;0.40;;;29.80;93.20;;;;;;5022246;28;20189;-73
2021/07/22 12:30:32;;;;;;;0.20;0.20;;;30.10;90.30;;;;;;5036089;28;20255;-73
2021/07/22 12:33:00;;;;;;;0.63;0.55;;;29.70;91.30;;;;;;5025527;28;20212;-73
2021/07/22 12:35:45;;;;;;;0.10;0.10;;;29.50;91.00;;;;;;5021371;28;20198;-73
2021/07/22 12:38:24;;;;;;;1.15;0.50;;;29.40;91.20;;;;;;5019574;28;20205;-72
2021/07/22 12:40:56;;;;;;;0.20;0.20;;;29.90;89.80;;;;;;5015173;28;20544;-73
2021/07/22 12:43:24;;;;;;;0.55;0.55;;;29.90;87.60;;;;;;5014969;28;20197;-73
2021/07/22 12:45:56;;;;;;;0.10;0.10;;;29.40;89.80;;;;;;5015756;28;20198;-73
2021/07/22 12:48:39;;;;;;;0.30;0.30;;;29.10;90.30;;;;;;5020278;28;20686;-73